METAR AND TAF INFORMATION
METAR FOR EDDP
ADDS - METARS form results

(0408 UTC 09 March 2021)
Data provider http://aviationweather.gov/metar/data/
 
METAR text: EDDP 090350Z 15006KT CAVOK M01/M04 Q1019 NOSIG
Conditions at: EDDP (LEIPZIG/SCHKEUDI, DE) observed 0350 UTC 09 March 2021
Temperature: -1.0°C (30°F)
Dewpoint: -4.0°C (25°F) [RH = 80%]
Pressure (altimeter): 30.09 inches Hg (1019.0 mb)
Winds: from the SSE (150 degrees) at 7 MPH (6 knots; 3.1 m/s)
Visibility: 6 or more miles (10+ km)
Ceiling: ceiling and visibility are OK
Clouds: unknown
Weather: no significant weather observed at this time

METAR text: EDDP 090320Z 15005KT CAVOK M01/M04 Q1020 NOSIG
Conditions at: EDDP (LEIPZIG/SCHKEUDI, DE) observed 0320 UTC 09 March 2021
Temperature: -1.0°C (30°F)
Dewpoint: -4.0°C (25°F) [RH = 80%]
Pressure (altimeter): 30.12 inches Hg (1020.0 mb)
Winds: from the SSE (150 degrees) at 6 MPH (5 knots; 2.6 m/s)
Visibility: 6 or more miles (10+ km)
Ceiling: ceiling and visibility are OK
Clouds: unknown
Weather: no significant weather observed at this time

Forecast for: EDDP (LEIPZIG/SCHKEUDI, DE)
Text: TAF EDDP 082300Z 0900/0924 13006KT CAVOK
Forecast period: 0000 UTC 09 March 2021 to 0000 UTC 10 March 2021
Forecast type: FROM: standard forecast or significant change
Winds: from the SE (130 degrees) at 7 MPH (6 knots; 3.1 m/s)
Visibility: 6 or more miles (10+ km)
Ceiling: unknown
Clouds: missing
Weather: NSW  (no significant weather)

 AIRPORT MAP

 RUNWAY INFORMATION
Runway 08L Runway length 11811 ft Runway width 148 ft
Runway elevation 418 ft Runway displaced threshold 0 ft Runway heading 86
Runway 26R Runway length 11811 ft Runway width 148 ft
Runway elevation 448 ft Runway displaced threshold 0 ft Runway heading 266
Runway 08R Runway length 11811 ft Runway width 198 ft
Runway elevation 0 ft Runway displaced threshold 0 ft Runway heading 86
Runway 26L Runway length 11811 ft Runway width 198 ft
Runway elevation 0 ft Runway displaced threshold 0 ft Runway heading 266

 AIRPORT FREQUENCIES
Type APP Name MUNCHEN RA Frequency 124.175 MHZ
Type ATIS Name ATIS Frequency 123.95 MHZ
Type GND Name GND Frequency 121.8 MHZ
Type INFO Name MUNCHEN IN Frequency 125.8 MHZ
Type TWR Name TWR Frequency 121.1 MHZ

 AIRPORT NEAR NAVIGATION AIDS
Type DME Name Leipzig South Frequency 112150 KHZ
Type VOR-DME Name Leipzig Frequency 115850 KHZ
Type DME Name Leipzig North Frequency 113500 KHZ
Type NDB Name Leipzig Frequency 357 KHZ
Type NDB Name Leipzig Frequency 434 KHZ
Type NDB Name Leipzig Frequency 340 KHZ



Powered by Virtual Airlines Manager [v2.6.2]